Time;durP1;ratioP1;P1;durP2;ratioP2;P2;SDS_P1;SDS_P2;PMS_P1;PMS_P2;Temp;Humidity;BMP_temperature;BMP_pressure;BME280_temperature;BME280_humidity;BME280_pressure;Samples;Min_cycle;Max_cycle;Signal;HPM_P1;HPM_P2
2021/08/25 00:01:48;;;;;;;;;;;26.10;99.90;;;;;;1873060;75;20199;-90
2021/08/25 00:04:20;;;;;;;;;;;26.10;99.90;;;;;;1899976;74;20208;-91
2021/08/25 00:06:49;;;;;;;;;;;26.10;99.90;;;;;;1877993;74;20134;-90
2021/08/25 00:09:22;;;;;;;;;;;26.10;99.90;;;;;;1841273;77;20469;-90
2021/08/25 00:11:54;;;;;;;;;;;26.20;99.90;;;;;;1843179;76;20188;-92
2021/08/25 00:14:23;;;;;;;;;;;26.10;99.90;;;;;;1852286;77;20148;-91
2021/08/25 00:16:53;;;;;;;;;;;26.20;99.90;;;;;;1829567;77;20200;-91
2021/08/25 00:19:25;;;;;;;;;;;26.20;99.90;;;;;;1866266;76;20192;-90
2021/08/25 00:21:55;;;;;;;;;;;26.20;99.90;;;;;;1863828;76;20171;-92
2021/08/25 00:24:28;;;;;;;;;;;26.20;99.90;;;;;;1861722;76;20241;-90
2021/08/25 00:27:03;;;;;;;;;;;26.30;99.90;;;;;;1882476;75;20204;-90
2021/08/25 00:29:33;;;;;;;;;;;26.30;99.90;;;;;;1847786;77;20205;-91
2021/08/25 00:32:24;;;;;;;;;;;26.30;99.90;;;;;;1840424;76;20276;-91
2021/08/25 00:34:57;;;;;;;;;;;26.30;99.90;;;;;;1812057;76;20202;-92
2021/08/25 00:37:28;;;;;;;;;;;26.30;99.90;;;;;;1847270;75;20411;-92
2021/08/25 00:40:08;;;;;;;;;;;26.30;99.90;;;;;;1850136;76;20205;-91
2021/08/25 00:42:45;;;;;;;;;;;26.40;99.90;;;;;;1861326;76;20198;-93
2021/08/25 00:45:25;;;;;;;;;;;26.40;99.90;;;;;;1859333;76;20445;-92
2021/08/25 00:47:55;;;;;;;;;;;26.50;99.90;;;;;;1860259;76;20222;-92
2021/08/25 00:56:38;;;;;;;;;;;26.50;99.90;;;;;;1859733;76;20295;-91
2021/08/25 01:02:41;;;;;;;;;;;26.60;99.90;;;;;;1682615;81;20314;-90
2021/08/25 01:05:15;;;;;;;;;;;26.70;99.90;;;;;;1712356;82;20277;-89
2021/08/25 01:07:45;;;;;;;;;;;26.70;99.90;;;;;;1714522;82;20185;-88
2021/08/25 01:10:19;;;;;;;;;;;26.70;99.90;;;;;;1716870;82;20253;-90
2021/08/25 01:12:47;;;;;;;;;;;26.70;99.90;;;;;;1713984;82;20265;-89
2021/08/25 01:15:17;;;;;;;;;;;26.80;99.90;;;;;;1722855;82;20190;-89
2021/08/25 01:18:29;;;;;;;;;;;26.80;99.90;;;;;;1724308;82;20245;-90
2021/08/25 01:23:44;;;;;;;;;;;26.80;99.90;;;;;;1675312;85;20389;-89
2021/08/25 01:26:15;;;;;;;;;;;26.90;99.90;;;;;;1667977;85;20236;-87
2021/08/25 01:28:46;;;;;;;;;;;26.90;99.90;;;;;;1669943;85;20298;-88
2021/08/25 01:31:16;;;;;;;;;;;27.00;99.90;;;;;;1633106;87;20330;-87
2021/08/25 01:33:47;;;;;;;;;;;27.00;99.90;;;;;;1631052;87;20247;-88
2021/08/25 01:36:17;;;;;;;;;;;27.00;99.90;;;;;;1682074;82;20189;-88
2021/08/25 01:38:48;;;;;;;;;;;27.10;99.90;;;;;;1725673;82;20474;-88
2021/08/25 01:41:19;;;;;;;;;;;27.20;99.90;;;;;;1710619;83;20255;-88
2021/08/25 01:43:50;;;;;;;;;;;27.20;99.90;;;;;;1702679;83;20182;-86
2021/08/25 01:46:21;;;;;;;;;;;27.20;99.90;;;;;;1727993;82;20195;-89
2021/08/25 01:48:51;;;;;;;;;;;27.20;99.90;;;;;;1721911;82;20504;-90
2021/08/25 01:51:21;;;;;;;;;;;27.20;99.90;;;;;;1715470;82;20276;-89
2021/08/25 01:53:55;;;;;;;;;;;27.20;99.90;;;;;;1721854;81;20215;-89
2021/08/25 01:56:24;;;;;;;;;;;27.20;99.90;;;;;;1731640;81;20195;-89
2021/08/25 01:59:00;;;;;;;;;;;27.30;99.90;;;;;;1741306;81;21089;-89
2021/08/25 02:01:28;;;;;;;;;;;27.40;99.90;;;;;;1781118;78;20186;-88
2021/08/25 02:04:01;;;;;;;;;;;27.50;99.90;;;;;;1846386;75;20168;-88
2021/08/25 02:06:31;;;;;;;;;;;27.60;99.90;;;;;;1882057;75;20705;-90
2021/08/25 02:09:03;;;;;;;;;;;27.80;99.90;;;;;;1859701;75;20141;-87
2021/08/25 02:11:33;;;;;;;;;;;28.00;99.90;;;;;;1884734;75;20194;-88
2021/08/25 02:14:05;;;;;;;;;;;28.10;99.90;;;;;;1878638;75;20211;-86
2021/08/25 02:16:49;;;;;;;;;;;28.20;99.80;;;;;;1885092;75;20221;-86
2021/08/25 02:19:26;;;;;;;;;;;28.20;99.60;;;;;;1869980;75;20138;-85
2021/08/25 02:21:59;;;;;;;;;;;28.20;99.70;;;;;;1866772;75;20149;-87
2021/08/25 02:24:26;;;;;;;;;;;28.10;99.70;;;;;;1896607;75;20203;-87
2021/08/25 02:27:31;;;;;;;;;;;28.10;99.80;;;;;;1864332;76;20188;-87
2021/08/25 02:29:30;;;;;;;;;;;28.20;99.80;;;;;;1873964;75;20166;-91
2021/08/25 02:32:08;;;;;;;;;;;28.30;99.90;;;;;;1887725;75;20183;-87
2021/08/25 02:37:46;;;;;;;;;;;28.50;99.70;;;;;;1832919;75;20149;-89
2021/08/25 02:40:31;;;;;;;;;;;28.70;99.80;;;;;;1878603;75;20155;-89
2021/08/25 02:43:22;;;;;;;;;;;29.00;99.20;;;;;;1830704;78;20186;-88
2021/08/25 02:46:27;;;;;;;;;;;;;;;;;;1803305;76;20575;-91
2021/08/25 02:49:00;;;;;;;;;;;29.60;99.90;;;;;;1867464;75;20429;-91
2021/08/25 02:51:32;;;;;;;;;;;29.60;99.90;;;;;;1881785;75;20170;-89
2021/08/25 02:54:05;;;;;;;;;;;29.80;99.90;;;;;;1868044;76;20211;-84
2021/08/25 02:56:47;;;;;;;;;;;30.00;99.90;;;;;;1864074;76;20203;-89
2021/08/25 02:59:14;;;;;;;;;;;29.80;99.90;;;;;;1859040;76;20159;-90
2021/08/25 03:01:53;;;;;;;;;;;29.70;99.90;;;;;;1889012;75;20190;-90
2021/08/25 03:04:23;;;;;;;;;;;29.80;99.90;;;;;;1878642;75;20166;-91
2021/08/25 03:06:53;;;;;;;;;;;;;;;;;;1886790;75;20499;-88
2021/08/25 03:09:25;;;;;;;;;;;;;;;;;;1915557;73;20120;-89
2021/08/25 03:11:56;;;;;;;;;;;;;;;;;;1912271;73;20205;-86
2021/08/25 03:14:26;;;;;;;;;;;30.00;94.50;;;;;;1875992;75;20161;-87
2021/08/25 03:16:58;;;;;;;;;;;30.20;95.80;;;;;;1875299;76;20260;-88
2021/08/25 03:19:28;;;;;;;;;;;30.20;94.10;;;;;;1931561;73;20223;-89
2021/08/25 03:21:59;;;;;;;;;;;30.20;95.30;;;;;;1909230;73;20117;-87
2021/08/25 03:24:28;;;;;;;;;;;30.30;94.80;;;;;;1881739;75;20206;-87
2021/08/25 03:26:58;;;;;;;;;;;30.40;93.30;;;;;;1877299;75;20210;-88
2021/08/25 03:29:28;;;;;;;;;;;30.40;93.80;;;;;;1869899;76;20442;-87
2021/08/25 03:31:57;;;;;;;;;;;30.50;93.50;;;;;;1935847;73;20167;-88
2021/08/25 03:34:28;;;;;;;;;;;30.50;93.20;;;;;;1916143;73;20204;-88
2021/08/25 03:39:50;;;;;;;;;;;30.80;93.60;;;;;;1800221;78;20236;-86
2021/08/25 03:42:21;;;;;;;;;;;30.90;93.10;;;;;;1837859;77;20456;-89
2021/08/25 03:45:07;;;;;;;;;;;31.00;93.00;;;;;;1803841;78;20189;-89
2021/08/25 03:47:37;;;;;;;;;;;31.10;93.10;;;;;;1803787;78;20202;-89
2021/08/25 03:50:25;;;;;;;;;;;;;;;;;;;;;
2021/08/25 03:52:54;;;;;;;;;;;31.30;92.20;;;;;;1789868;78;20211;-88
2021/08/25 03:55:29;;;;;;;;;;;31.30;92.50;;;;;;1829421;78;20148;-90
2021/08/25 03:57:58;;;;;;;;;;;31.40;92.50;;;;;;1827421;77;20196;-87
2021/08/25 04:00:29;;;;;;;;;;;31.50;93.10;;;;;;1825331;78;20215;-88
2021/08/25 04:03:01;;;;;;;;;;;31.60;91.50;;;;;;1820720;77;20399;-89
2021/08/25 04:05:36;;;;;;;;;;;31.50;91.20;;;;;;1806873;78;20204;-88
2021/08/25 04:08:10;;;;;;;;;;;31.40;91.70;;;;;;1810113;78;20167;-88
2021/08/25 04:10:49;;;;;;;;;;;31.30;91.30;;;;;;1811976;78;20183;-88
2021/08/25 04:13:19;;;;;;;;;;;31.40;92.00;;;;;;1811663;78;20461;-88
2021/08/25 04:15:51;;;;;;;;;;;31.50;91.30;;;;;;1812556;78;20157;-89
2021/08/25 04:18:25;;;;;;;;;;;31.50;91.60;;;;;;1884550;75;20297;-88
2021/08/25 04:20:56;;;;;;;;;;;31.60;91.30;;;;;;1850117;76;20263;-88
2021/08/25 04:23:30;;;;;;;;;;;31.60;90.50;;;;;;1815638;78;20349;-89
2021/08/25 04:26:07;;;;;;;;;;;31.60;90.50;;;;;;1841220;76;20239;-88
2021/08/25 04:28:39;;;;;;;;;;;31.60;91.20;;;;;;1841192;76;20215;-88
2021/08/25 04:31:09;;;;;;;;;;;31.70;90.60;;;;;;1861815;76;20157;-88
2021/08/25 04:33:41;;;;;;;;;;;31.70;90.50;;;;;;1818676;79;20210;-89
2021/08/25 04:36:11;;;;;;;;;;;31.80;90.70;;;;;;1839642;77;20187;-89
2021/08/25 04:38:41;;;;;;;;;;;31.90;90.80;;;;;;1827102;78;20179;-88
2021/08/25 04:41:10;;;;;;;;;;;32.00;90.40;;;;;;1825286;75;20210;-86
2021/08/25 04:43:48;;;;;;;;;;;32.20;89.90;;;;;;1826358;75;20198;-88
2021/08/25 04:46:17;;;;;;;;;;;32.30;89.10;;;;;;1816003;76;20186;-87
2021/08/25 04:48:46;;;;;;;;;;;32.40;89.00;;;;;;1827464;74;20214;-87
2021/08/25 04:51:16;;;;;;;;;;;32.40;89.50;;;;;;1792153;76;20178;-86
2021/08/25 04:53:46;;;;;;;;;;;32.50;89.30;;;;;;1815191;78;20241;-89
2021/08/25 04:56:15;;;;;;;;;;;32.60;90.30;;;;;;1816645;77;20236;-88
2021/08/25 04:58:45;;;;;;;;;;;32.70;89.40;;;;;;1839600;76;20474;-89
2021/08/25 05:01:15;;;;;;;;;;;32.70;86.80;;;;;;1845219;76;20249;-89
2021/08/25 05:03:45;;;;;;;;;;;32.70;87.60;;;;;;1814571;78;20132;-88
2021/08/25 05:06:17;;;;;;;;;;;32.70;86.00;;;;;;1842494;76;20181;-89
2021/08/25 05:08:48;;;;;;;;;;;32.70;86.40;;;;;;1834385;78;20125;-88
2021/08/25 05:11:17;;;;;;;;;;;32.50;86.90;;;;;;1846583;76;20188;-89
2021/08/25 05:13:49;;;;;;;;;;;32.40;88.60;;;;;;1830715;78;20365;-88
2021/08/25 05:16:18;;;;;;;;;;;32.40;87.90;;;;;;1839672;76;20124;-89
2021/08/25 05:18:48;;;;;;;;;;;32.40;87.50;;;;;;1859049;76;20235;-87
2021/08/25 05:21:19;;;;;;;;;;;32.40;88.60;;;;;;1854911;76;20296;-87
2021/08/25 05:23:51;;;;;;;;;;;32.40;88.30;;;;;;1836811;76;20216;-88
2021/08/25 05:26:24;;;;;;;;;;;32.50;88.60;;;;;;1862362;75;20247;-90
2021/08/25 05:29:00;;;;;;;;;;;32.40;87.10;;;;;;1875455;76;20156;-90
2021/08/25 05:31:34;;;;;;;;;;;32.40;87.40;;;;;;1868699;75;20124;-91
2021/08/25 05:34:06;;;;;;;;;;;32.40;88.00;;;;;;1857232;76;20161;-91
2021/08/25 05:36:53;;;;;;;;;;;32.20;87.80;;;;;;1867030;76;20571;-92
2021/08/25 05:39:24;;;;;;;;;;;32.20;88.60;;;;;;1864208;76;20132;-91
2021/08/25 05:41:54;;;;;;;;;;;32.20;87.50;;;;;;1917106;73;20201;-89
2021/08/25 05:44:26;;;;;;;;;;;32.20;88.70;;;;;;1912206;74;20195;-88
2021/08/25 05:46:57;;;;;;;;;;;32.30;85.80;;;;;;1920897;74;20215;-90
2021/08/25 05:49:37;;;;;;;;;;;32.20;86.50;;;;;;1924013;74;20166;-91
2021/08/25 05:52:11;;;;;;;;;;;32.10;85.60;;;;;;1872624;76;20174;-88
2021/08/25 05:54:42;;;;;;;;;;;32.20;87.80;;;;;;1864531;76;20158;-89
2021/08/25 05:57:12;;;;;;;;;;;32.20;86.20;;;;;;1913928;74;20198;-90
2021/08/25 05:59:44;;;;;;;;;;;32.30;86.10;;;;;;1865023;75;20159;-90
2021/08/25 06:02:14;;;;;;;;;;;32.40;87.10;;;;;;1896546;74;20165;-90
2021/08/25 06:04:44;;;;;;;;;;;32.40;85.30;;;;;;1870064;76;20556;-90
2021/08/25 06:07:13;;;;;;;;;;;32.30;84.80;;;;;;1872071;76;20221;-89
2021/08/25 06:09:43;;;;;;;;;;;32.40;83.20;;;;;;1842698;76;20224;-90
2021/08/25 06:12:13;;;;;;;;;;;32.40;83.70;;;;;;1835003;77;20247;-90
2021/08/25 06:14:43;;;;;;;;;;;32.30;84.70;;;;;;1816245;79;20162;-90
2021/08/25 06:17:17;;;;;;;;;;;32.30;85.00;;;;;;1816733;78;20214;-87
2021/08/25 06:19:43;;;;;;;;;;;32.20;85.50;;;;;;1816625;78;20235;-87
2021/08/25 06:22:13;;;;;;;;;;;32.20;84.00;;;;;;1821905;78;20483;-90
2021/08/25 06:24:44;;;;;;;;;;;32.30;84.40;;;;;;1811122;79;20160;-88
2021/08/25 06:27:17;;;;;;;;;;;32.40;83.00;;;;;;1786374;80;20232;-90
2021/08/25 06:29:47;;;;;;;;;;;32.50;83.80;;;;;;1846531;77;20174;-90
2021/08/25 06:32:17;;;;;;;;;;;32.60;84.10;;;;;;1847018;77;20169;-89
2021/08/25 06:34:46;;;;;;;;;;;32.70;83.50;;;;;;1842204;76;20148;-91
2021/08/25 06:37:16;;;;;;;;;;;32.80;81.40;;;;;;1814456;79;20210;-90
2021/08/25 06:39:47;;;;;;;;;;;32.80;83.90;;;;;;1816910;78;20521;-90
2021/08/25 06:42:17;;;;;;;;;;;32.70;84.00;;;;;;1818080;79;20221;-87
2021/08/25 06:44:46;;;;;;;;;;;32.70;85.00;;;;;;1832233;77;20215;-90
2021/08/25 06:47:16;;;;;;;;;;;32.60;83.70;;;;;;1823053;79;20202;-93
2021/08/25 06:49:47;;;;;;;;;;;32.40;83.60;;;;;;1817022;79;20388;-91
2021/08/25 06:52:17;;;;;;;;;;;32.40;84.10;;;;;;1820363;78;20182;-91
2021/08/25 06:54:47;;;;;;;;;;;32.30;84.80;;;;;;1817599;78;20383;-88
2021/08/25 06:57:16;;;;;;;;;;;32.20;85.70;;;;;;1848682;77;20277;-92
2021/08/25 06:59:46;;;;;;;;;;;32.20;83.90;;;;;;1840887;77;20186;-90
2021/08/25 07:02:16;;;;;;;;;;;32.40;82.60;;;;;;1845736;77;20197;-91
2021/08/25 07:04:46;;;;;;;;;;;32.30;83.90;;;;;;1818202;79;20254;-91
2021/08/25 07:07:17;;;;;;;;;;;32.40;84.10;;;;;;1833317;77;20249;-91
2021/08/25 07:09:47;;;;;;;;;;;32.30;84.10;;;;;;1885518;76;20193;-90
2021/08/25 07:12:17;;;;;;;;;;;32.20;85.80;;;;;;1876774;75;20207;-89
2021/08/25 07:14:47;;;;;;;;;;;32.10;85.60;;;;;;1881685;75;20129;-87
2021/08/25 07:17:16;;;;;;;;;;;32.10;85.90;;;;;;1857241;76;20134;-91
2021/08/25 07:19:46;;;;;;;;;;;32.00;86.50;;;;;;1854854;76;20135;-90
2021/08/25 07:22:18;;;;;;;;;;;32.10;86.00;;;;;;1848658;77;20255;-89
2021/08/25 07:24:48;;;;;;;;;;;32.10;86.70;;;;;;1881820;74;20225;-90
2021/08/25 07:27:18;;;;;;;;;;;32.20;86.70;;;;;;1872909;75;20565;-90
2021/08/25 07:29:48;;;;;;;;;;;32.20;86.30;;;;;;1878847;75;20205;-91
2021/08/25 07:32:17;;;;;;;;;;;32.30;84.90;;;;;;1871957;76;20216;-90
2021/08/25 07:34:47;;;;;;;;;;;32.40;85.70;;;;;;1877162;75;20187;-90
2021/08/25 07:37:16;;;;;;;;;;;32.50;83.70;;;;;;1867890;76;20227;-89
2021/08/25 07:39:46;;;;;;;;;;;32.50;83.40;;;;;;1838386;77;20213;-92
2021/08/25 07:42:16;;;;;;;;;;;32.50;85.70;;;;;;1841753;77;20150;-89
2021/08/25 07:44:46;;;;;;;;;;;32.50;84.60;;;;;;1842474;76;20265;-90
2021/08/25 07:47:16;;;;;;;;;;;32.50;84.90;;;;;;1880615;76;20200;-88
2021/08/25 07:49:50;;;;;;;;;;;32.60;85.30;;;;;;1880832;75;20171;-88
2021/08/25 07:52:19;;;;;;;;;;;32.60;84.20;;;;;;1876261;76;20185;-91
2021/08/25 07:54:49;;;;;;;;;;;32.60;84.30;;;;;;1870880;75;20195;-89
2021/08/25 07:57:18;;;;;;;;;;;32.60;85.10;;;;;;1852157;76;20276;-90
2021/08/25 07:59:50;;;;;;;;;;;32.60;84.60;;;;;;1878808;76;20162;-88
2021/08/25 08:02:21;;;;;;;;;;;32.60;83.90;;;;;;1866984;76;20276;-86
2021/08/25 08:04:51;;;;;;;;;;;32.50;84.60;;;;;;1870509;75;20174;-87
2021/08/25 08:07:21;;;;;;;;;;;32.50;84.90;;;;;;1845707;77;20277;-89
2021/08/25 08:09:50;;;;;;;;;;;32.50;83.70;;;;;;1876690;75;20166;-85
2021/08/25 08:12:20;;;;;;;;;;;32.50;83.90;;;;;;1862951;76;20174;-85
2021/08/25 08:14:50;;;;;;;;;;;32.60;84.20;;;;;;1858057;76;20220;-85
2021/08/25 08:17:22;;;;;;;;;;;32.60;84.20;;;;;;1862862;76;20189;-86
2021/08/25 08:19:51;;;;;;;;;;;32.60;84.20;;;;;;1862267;76;20170;-86
2021/08/25 08:22:20;;;;;;;;;;;32.60;84.40;;;;;;1859376;76;20123;-85
2021/08/25 08:24:50;;;;;;;;;;;32.60;84.30;;;;;;1841724;76;20432;-87
2021/08/25 08:27:25;;;;;;;;;;;32.50;84.40;;;;;;1852875;76;20214;-87
2021/08/25 08:29:54;;;;;;;;;;;32.50;84.80;;;;;;1849904;76;20683;-85
2021/08/25 08:32:25;;;;;;;;;;;32.60;84.90;;;;;;1849291;76;20160;-85
2021/08/25 08:34:55;;;;;;;;;;;32.60;84.90;;;;;;1851055;76;20451;-88
2021/08/25 08:37:25;;;;;;;;;;;32.60;84.30;;;;;;1858045;76;20168;-91
2021/08/25 08:39:54;;;;;;;;;;;32.60;84.90;;;;;;1864975;76;20204;-91
2021/08/25 08:42:25;;;;;;;;;;;32.50;84.70;;;;;;1901365;75;20183;-88
2021/08/25 08:44:58;;;;;;;;;;;32.50;84.70;;;;;;1890808;75;20174;-87
2021/08/25 08:47:31;;;;;;;;;;;32.50;83.90;;;;;;1894575;75;20429;-87
2021/08/25 08:50:01;;;;;;;;;;;32.40;83.50;;;;;;1887816;75;20206;-88
2021/08/25 08:52:34;;;;;;;;;;;32.40;84.20;;;;;;1845425;76;20233;-90
2021/08/25 08:55:30;;;;;;;;;;;32.40;84.20;;;;;;1830705;76;20253;-87
2021/08/25 08:58:00;;;;;;;;;;;32.40;84.60;;;;;;1892502;75;20225;-88
2021/08/25 09:00:30;;;;;;;;;;;32.40;84.40;;;;;;1846007;77;20184;-89
2021/08/25 09:03:03;;;;;;;;;;;32.40;83.10;;;;;;1827027;77;20205;-88
2021/08/25 09:05:34;;;;;;;;;;;32.40;83.70;;;;;;1851047;76;20578;-89
2021/08/25 09:08:07;;;;;;;;;;;32.30;83.90;;;;;;1845930;76;20192;-92
2021/08/25 09:10:38;;;;;;;;;;;32.30;82.80;;;;;;1889030;74;20252;-82
2021/08/25 09:13:08;;;;;;;;;;;32.30;83.20;;;;;;1845544;76;20286;-84
2021/08/25 09:15:47;;;;;;;;;;;32.30;83.50;;;;;;1889021;74;20212;-84
2021/08/25 09:18:22;;;;;;;;;;;32.20;83.20;;;;;;1833301;77;20171;-82
2021/08/25 09:21:02;;;;;;;;;;;32.20;84.60;;;;;;1880690;74;20603;-81
2021/08/25 09:23:27;;;;;;;;;;;32.20;83.30;;;;;;1876391;74;20636;-84
2021/08/25 09:26:15;;;;;;;;;;;32.20;83.20;;;;;;1847467;76;20223;-84
2021/08/25 09:28:44;;;;;;;;;;;32.20;83.40;;;;;;1819015;77;20155;-82
2021/08/25 09:31:14;;;;;;;;;;;32.10;83.60;;;;;;1897146;74;20190;-84
2021/08/25 09:33:45;;;;;;;;;;;32.10;83.70;;;;;;1836711;76;20194;-82
2021/08/25 09:36:16;;;;;;;;;;;32.10;84.70;;;;;;1886870;74;20180;-83
2021/08/25 09:38:47;;;;;;;;;;;32.10;84.50;;;;;;1895822;74;20170;-82
2021/08/25 09:41:19;;;;;;;;;;;32.00;83.20;;;;;;1881434;74;20451;-82
2021/08/25 09:43:50;;;;;;;;;;;32.00;83.30;;;;;;1845967;76;20146;-81
2021/08/25 09:46:26;;;;;;;;;;;32.00;83.80;;;;;;1885675;74;20219;-83
2021/08/25 09:49:01;;;;;;;;;;;32.00;84.10;;;;;;1854229;76;20202;-82
2021/08/25 09:51:29;;;;;;;;;;;31.90;85.50;;;;;;1884813;74;20454;-80
2021/08/25 09:53:59;;;;;;;;;;;31.90;84.80;;;;;;1875101;76;20205;-81
2021/08/25 09:56:34;;;;;;;;;;;31.80;84.70;;;;;;1834609;76;20187;-81
2021/08/25 09:59:06;;;;;;;;;;;31.80;84.90;;;;;;1879530;75;20141;-81
2021/08/25 10:01:41;;;;;;;;;;;31.80;84.60;;;;;;1892571;74;20194;-82
2021/08/25 10:04:14;;;;;;;;;;;31.80;85.00;;;;;;1890372;75;20233;-82
2021/08/25 10:06:47;;;;;;;;;;;31.70;85.70;;;;;;1876923;74;20252;-80
2021/08/25 10:09:17;;;;;;;;;;;31.70;86.00;;;;;;1907450;73;20193;-80
2021/08/25 10:11:51;;;;;;;;;;;31.70;86.90;;;;;;1878689;75;20198;-80
2021/08/25 10:14:21;;;;;;;;;;;31.70;87.00;;;;;;1835678;77;20225;-82
2021/08/25 10:16:52;;;;;;;;;;;31.60;86.50;;;;;;1818862;77;20274;-83
2021/08/25 10:19:23;;;;;;;;;;;31.60;86.20;;;;;;1842852;76;20214;-81
2021/08/25 10:21:54;;;;;;;;;;;31.60;86.10;;;;;;1836583;76;20154;-81
2021/08/25 10:24:24;;;;;;;;;;;31.60;86.70;;;;;;1801837;79;20192;-81
2021/08/25 10:26:54;;;;;;;;;;;31.50;87.10;;;;;;1889674;74;20252;-81
2021/08/25 10:29:24;;;;;;;;;;;31.50;87.20;;;;;;1895808;74;20827;-79
2021/08/25 10:31:54;;;;;;;;;;;31.50;87.80;;;;;;1830999;77;20211;-83
2021/08/25 10:34:34;;;;;;;;;;;31.50;88.20;;;;;;1843455;76;20741;-82
2021/08/25 10:36:57;;;;;;;;;;;31.40;88.10;;;;;;1814921;77;20193;-83
2021/08/25 10:39:28;;;;;;;;;;;31.40;87.80;;;;;;1859244;75;20193;-81
2021/08/25 10:41:57;;;;;;;;;;;31.40;87.80;;;;;;1869699;75;20178;-81
2021/08/25 10:44:31;;;;;;;;;;;31.40;88.10;;;;;;1835969;76;20204;-80
2021/08/25 10:47:03;;;;;;;;;;;31.40;88.50;;;;;;1847458;76;20123;-81
2021/08/25 10:49:32;;;;;;;;;;;31.40;88.80;;;;;;1835617;77;20222;-82
2021/08/25 10:52:03;;;;;;;;;;;31.30;88.70;;;;;;1818788;77;20175;-81
2021/08/25 10:54:42;;;;;;;;;;;31.30;88.80;;;;;;1839847;76;20182;-82
2021/08/25 10:57:12;;;;;;;;;;;31.30;89.00;;;;;;1831024;76;20205;-81
2021/08/25 10:59:46;;;;;;;;;;;31.30;89.20;;;;;;1838268;76;20135;-81
2021/08/25 11:02:25;;;;;;;;;;;31.30;89.30;;;;;;1827603;76;20176;-82
2021/08/25 11:05:00;;;;;;;;;;;31.30;89.70;;;;;;1849609;76;20172;-82
2021/08/25 11:07:29;;;;;;;;;;;31.20;89.10;;;;;;1839836;76;20225;-82
2021/08/25 11:09:59;;;;;;;;;;;31.20;89.20;;;;;;1873524;75;20117;-82
2021/08/25 11:12:28;;;;;;;;;;;31.10;89.40;;;;;;1915032;73;20185;-79
2021/08/25 11:14:58;;;;;;;;;;;31.10;89.60;;;;;;1860727;75;20202;-82
2021/08/25 11:17:27;;;;;;;;;;;31.10;89.70;;;;;;1918416;73;20138;-81
2021/08/25 11:19:58;;;;;;;;;;;31.10;89.80;;;;;;1860989;75;20213;-83
2021/08/25 11:22:29;;;;;;;;;;;31.10;89.90;;;;;;1923917;73;20185;-81
2021/08/25 11:25:00;;;;;;;;;;;31.00;89.70;;;;;;1875694;75;20406;-83
2021/08/25 11:27:34;;;;;;;;;;;31.00;89.70;;;;;;1879428;75;20199;-82
2021/08/25 11:30:05;;;;;;;;;;;31.00;90.00;;;;;;1869285;75;20931;-83
2021/08/25 11:32:42;;;;;;;;;;;31.00;90.00;;;;;;1863684;75;20239;-82
2021/08/25 11:35:12;;;;;;;;;;;30.90;90.00;;;;;;1925234;73;20228;-83
2021/08/25 11:37:43;;;;;;;;;;;30.90;90.00;;;;;;1879815;75;20199;-82
2021/08/25 11:40:13;;;;;;;;;;;30.90;90.10;;;;;;1922773;74;20118;-82
2021/08/25 11:42:44;;;;;;;;;;;30.90;90.10;;;;;;1864391;75;20524;-82
2021/08/25 11:45:21;;;;;;;;;;;30.90;90.20;;;;;;1916501;73;20187;-82
2021/08/25 11:47:56;;;;;;;;;;;30.90;90.20;;;;;;1862974;76;20166;-83
2021/08/25 11:50:27;;;;;;;;;;;30.80;90.30;;;;;;1918398;73;20255;-83
2021/08/25 11:53:00;;;;;;;;;;;30.80;90.40;;;;;;1869189;75;20191;-83
2021/08/25 11:55:31;;;;;;;;;;;30.80;90.40;;;;;;1867290;75;20184;-84
2021/08/25 11:58:01;;;;;;;;;;;30.80;90.50;;;;;;1919449;74;20169;-82
2021/08/25 12:00:31;;;;;;;;;;;30.80;90.50;;;;;;1928559;74;20231;-82
2021/08/25 12:03:02;;;;;;;;;;;30.70;90.50;;;;;;1885039;75;20146;-83
2021/08/25 12:05:38;;;;;;;;;;;30.70;90.50;;;;;;1877064;75;20174;-83
2021/08/25 12:08:09;;;;;;;;;;;30.70;90.60;;;;;;1928136;73;20506;-83
2021/08/25 12:10:40;;;;;;;;;;;30.70;90.60;;;;;;1849908;76;20219;-82
2021/08/25 12:13:10;;;;;;;;;;;30.70;90.60;;;;;;1798577;78;20812;-84
2021/08/25 12:15:43;;;;;;;;;;;30.70;90.60;;;;;;1774866;80;20239;-83
2021/08/25 12:18:14;;;;;;;;;;;30.70;90.60;;;;;;1785492;79;20281;-83
2021/08/25 12:20:45;;;;;;;;;;;30.70;90.60;;;;;;1777582;79;20259;-82
2021/08/25 12:23:16;;;;;;;;;;;30.60;90.60;;;;;;1782056;79;20318;-82
2021/08/25 12:25:47;;;;;;;;;;;30.60;90.70;;;;;;1790231;79;20266;-81
2021/08/25 12:28:44;;;;;;;;;;;30.60;90.80;;;;;;1755465;79;20227;-82
2021/08/25 12:31:19;;;;;;;;;;;30.60;90.80;;;;;;1783007;79;20317;-83
2021/08/25 12:33:47;;;;;;;;;;;30.60;91.00;;;;;;1773622;80;20227;-83
2021/08/25 12:36:20;;;;;;;;;;;30.60;91.10;;;;;;1769694;80;20364;-83
2021/08/25 12:38:50;;;;;;;;;;;30.60;91.10;;;;;;1786364;79;20539;-83
2021/08/25 12:41:20;;;;;;;;;;;30.50;91.00;;;;;;1807392;76;20729;-83
2021/08/25 12:43:50;;;;;;;;;;;30.50;91.20;;;;;;1846255;76;20214;-84
2021/08/25 12:46:20;;;;;;;;;;;30.50;91.30;;;;;;1845255;76;20153;-83
2021/08/25 12:48:50;;;;;;;;;;;30.50;91.50;;;;;;1844479;76;20625;-82
2021/08/25 12:51:22;;;;;;;;;;;30.50;91.50;;;;;;1845987;76;20474;-83
2021/08/25 12:53:53;;;;;;;;;;;30.50;91.70;;;;;;1838036;77;20155;-83
2021/08/25 12:56:23;;;;;;;;;;;30.50;91.60;;;;;;1921716;74;20204;-84
2021/08/25 12:58:53;;;;;;;;;;;30.40;91.80;;;;;;1877350;76;20444;-83
2021/08/25 13:01:22;;;;;;;;;;;30.40;91.80;;;;;;1860017;75;20497;-83
2021/08/25 13:03:52;;;;;;;;;;;30.40;91.80;;;;;;1926559;74;20490;-83
2021/08/25 13:06:22;;;;;;;;;;;30.40;91.80;;;;;;1910993;73;20247;-82
2021/08/25 13:08:51;;;;;;;;;;;30.40;92.00;;;;;;1870361;76;20210;-83
2021/08/25 13:11:22;;;;;;;;;;;30.40;91.90;;;;;;1889473;75;20205;-85
2021/08/25 13:13:52;;;;;;;;;;;30.40;92.00;;;;;;1891788;75;20429;-84
2021/08/25 13:16:22;;;;;;;;;;;30.40;91.90;;;;;;1837759;77;20250;-83
2021/08/25 13:19:00;;;;;;;;;;;30.40;92.00;;;;;;1892782;75;20166;-84
2021/08/25 13:21:32;;;;;;;;;;;30.40;92.10;;;;;;1875109;76;20159;-84
2021/08/25 13:24:01;;;;;;;;;;;30.30;92.00;;;;;;1869717;74;20225;-84
2021/08/25 13:26:36;;;;;;;;;;;30.30;92.10;;;;;;1842480;77;20509;-82
2021/08/25 13:29:05;;;;;;;;;;;30.30;92.10;;;;;;1885286;76;20290;-82
2021/08/25 13:31:35;;;;;;;;;;;30.30;92.20;;;;;;1836573;76;20188;-82
2021/08/25 13:34:07;;;;;;;;;;;30.30;92.20;;;;;;1886684;75;20234;-83
2021/08/25 13:36:38;;;;;;;;;;;30.20;92.20;;;;;;1887789;74;20160;-82
2021/08/25 13:39:08;;;;;;;;;;;30.30;92.20;;;;;;1889111;74;20177;-83
2021/08/25 13:41:38;;;;;;;;;;;30.20;92.30;;;;;;1882052;74;20367;-83
2021/08/25 13:44:07;;;;;;;;;;;30.20;92.20;;;;;;1882306;74;20256;-82
2021/08/25 13:46:37;;;;;;;;;;;30.20;92.60;;;;;;1879748;74;20427;-82
2021/08/25 13:49:06;;;;;;;;;;;30.20;92.50;;;;;;1889779;74;20125;-82
2021/08/25 13:51:36;;;;;;;;;;;30.20;92.40;;;;;;1841688;77;20159;-82
2021/08/25 13:54:07;;;;;;;;;;;30.20;92.30;;;;;;1801428;77;20184;-82
2021/08/25 13:56:36;;;;;;;;;;;30.20;92.40;;;;;;1856827;76;20201;-82
2021/08/25 13:59:06;;;;;;;;;;;30.20;92.40;;;;;;1859884;76;20177;-82
2021/08/25 14:01:36;;;;;;;;;;;30.20;92.40;;;;;;1865617;76;20157;-82
2021/08/25 14:04:06;;;;;;;;;;;30.20;92.50;;;;;;1865866;76;20192;-83
2021/08/25 14:06:36;;;;;;;;;;;30.10;92.50;;;;;;1872439;76;20160;-86
2021/08/25 14:09:07;;;;;;;;;;;30.20;92.50;;;;;;1855719;76;20548;-83
2021/08/25 14:11:38;;;;;;;;;;;30.20;92.60;;;;;;1864399;75;20227;-82
2021/08/25 14:14:08;;;;;;;;;;;30.20;92.70;;;;;;1862766;75;20239;-81
2021/08/25 14:16:38;;;;;;;;;;;30.20;92.70;;;;;;1871551;76;20241;-82
2021/08/25 14:19:09;;;;;;;;;;;30.10;92.60;;;;;;1864737;75;20472;-83
2021/08/25 14:21:41;;;;;;;;;;;30.10;92.70;;;;;;1870144;75;20153;-83
2021/08/25 14:24:10;;;;;;;;;;;30.10;92.70;;;;;;1873399;76;20283;-83
2021/08/25 14:26:41;;;;;;;;;;;30.10;92.80;;;;;;1866963;76;20986;-83
2021/08/25 14:29:10;;;;;;;;;;;30.00;92.90;;;;;;1863345;76;20165;-83
2021/08/25 14:31:40;;;;;;;;;;;30.00;93.00;;;;;;1868958;76;20168;-83
2021/08/25 14:34:09;;;;;;;;;;;30.00;93.00;;;;;;1867276;76;20382;-83
2021/08/25 14:36:39;;;;;;;;;;;29.90;92.90;;;;;;1863845;76;20209;-82
2021/08/25 14:39:08;;;;;;;;;;;29.90;93.20;;;;;;1866561;76;20220;-83
2021/08/25 14:41:38;;;;;;;;;;;29.90;93.00;;;;;;1864302;74;20256;-83
2021/08/25 14:44:08;;;;;;;;;;;29.90;93.40;;;;;;1872259;74;20510;-83
2021/08/25 14:46:38;;;;;;;;;;;29.90;93.20;;;;;;1860925;76;20978;-83
2021/08/25 14:49:10;;;;;;;;;;;29.90;93.10;;;;;;1870677;76;20141;-83
2021/08/25 14:51:41;;;;;;;;;;;29.80;93.40;;;;;;1868108;76;20239;-83
2021/08/25 14:54:16;;;;;;;;;;;29.80;93.90;;;;;;1873972;76;20193;-83
2021/08/25 14:56:49;;;;;;;;;;;29.80;94.10;;;;;;1857975;74;20156;-83
2021/08/25 14:59:17;;;;;;;;;;;29.80;93.70;;;;;;1873392;76;20547;-83
2021/08/25 15:01:49;;;;;;;;;;;29.80;94.10;;;;;;1864330;76;20153;-82
2021/08/25 15:04:19;;;;;;;;;;;29.80;94.00;;;;;;1863325;75;20704;-82